sensor_id;sensor_type;location;lat;lon;timestamp;P1;durP1;ratioP1;P2;durP2;ratioP2
17199;SDS011;8716;52.268;20.968;2023-09-30T00:02:08;10.30;;;9.80;;
17199;SDS011;8716;52.268;20.968;2023-09-30T00:04:38;7.13;;;6.50;;
17199;SDS011;8716;52.268;20.968;2023-09-30T00:07:06;9.10;;;8.60;;
17199;SDS011;8716;52.268;20.968;2023-09-30T00:09:36;12.33;;;7.20;;
17199;SDS011;8716;52.268;20.968;2023-09-30T00:12:04;7.80;;;7.40;;
17199;SDS011;8716;52.268;20.968;2023-09-30T00:14:33;6.87;;;6.47;;
17199;SDS011;8716;52.268;20.968;2023-09-30T00:17:02;7.13;;;6.73;;
17199;SDS011;8716;52.268;20.968;2023-09-30T00:19:31;7.33;;;6.93;;
17199;SDS011;8716;52.268;20.968;2023-09-30T00:21:59;8.80;;;8.30;;
17199;SDS011;8716;52.268;20.968;2023-09-30T00:24:28;6.33;;;5.97;;
17199;SDS011;8716;52.268;20.968;2023-09-30T00:26:58;6.77;;;6.37;;
17199;SDS011;8716;52.268;20.968;2023-09-30T00:29:26;7.77;;;7.37;;
17199;SDS011;8716;52.268;20.968;2023-09-30T00:31:54;11.43;;;9.40;;
17199;SDS011;8716;52.268;20.968;2023-09-30T00:34:22;6.47;;;6.07;;
17199;SDS011;8716;52.268;20.968;2023-09-30T00:36:51;8.00;;;7.00;;
17199;SDS011;8716;52.268;20.968;2023-09-30T00:39:19;7.30;;;6.90;;
17199;SDS011;8716;52.268;20.968;2023-09-30T00:41:49;7.53;;;7.13;;
17199;SDS011;8716;52.268;20.968;2023-09-30T00:44:19;8.93;;;8.43;;
17199;SDS011;8716;52.268;20.968;2023-09-30T00:46:47;6.07;;;5.77;;
17199;SDS011;8716;52.268;20.968;2023-09-30T00:49:16;6.67;;;6.27;;
17199;SDS011;8716;52.268;20.968;2023-09-30T00:51:45;5.17;;;4.87;;
17199;SDS011;8716;52.268;20.968;2023-09-30T00:54:15;11.37;;;7.50;;
17199;SDS011;8716;52.268;20.968;2023-09-30T00:56:45;5.83;;;5.53;;
17199;SDS011;8716;52.268;20.968;2023-09-30T00:59:15;8.53;;;8.07;;
17199;SDS011;8716;52.268;20.968;2023-09-30T01:01:45;7.40;;;7.00;;
17199;SDS011;8716;52.268;20.968;2023-09-30T01:04:14;10.40;;;7.30;;
17199;SDS011;8716;52.268;20.968;2023-09-30T01:06:44;7.30;;;6.47;;
17199;SDS011;8716;52.268;20.968;2023-09-30T01:09:14;8.80;;;6.13;;
17199;SDS011;8716;52.268;20.968;2023-09-30T01:11:42;8.97;;;8.47;;
17199;SDS011;8716;52.268;20.968;2023-09-30T01:14:23;7.03;;;6.63;;
17199;SDS011;8716;52.268;20.968;2023-09-30T01:16:57;6.07;;;5.77;;
17199;SDS011;8716;52.268;20.968;2023-09-30T01:19:25;6.83;;;6.40;;
17199;SDS011;8716;52.268;20.968;2023-09-30T01:21:55;7.20;;;6.80;;
17199;SDS011;8716;52.268;20.968;2023-09-30T01:24:27;6.27;;;5.93;;
17199;SDS011;8716;52.268;20.968;2023-09-30T01:26:56;6.10;;;5.80;;
17199;SDS011;8716;52.268;20.968;2023-09-30T01:29:24;7.20;;;6.80;;
17199;SDS011;8716;52.268;20.968;2023-09-30T01:31:53;10.33;;;5.83;;
17199;SDS011;8716;52.268;20.968;2023-09-30T01:34:22;4.70;;;4.40;;
17199;SDS011;8716;52.268;20.968;2023-09-30T01:36:50;10.03;;;9.53;;
17199;SDS011;8716;52.268;20.968;2023-09-30T01:39:20;7.60;;;7.20;;
17199;SDS011;8716;52.268;20.968;2023-09-30T01:41:48;5.90;;;5.60;;
17199;SDS011;8716;52.268;20.968;2023-09-30T01:44:17;7.27;;;6.87;;
17199;SDS011;8716;52.268;20.968;2023-09-30T01:46:45;8.33;;;6.77;;
17199;SDS011;8716;52.268;20.968;2023-09-30T01:49:14;7.73;;;7.33;;
17199;SDS011;8716;52.268;20.968;2023-09-30T01:51:42;12.70;;;5.20;;
17199;SDS011;8716;52.268;20.968;2023-09-30T01:54:10;8.00;;;7.60;;
17199;SDS011;8716;52.268;20.968;2023-09-30T01:56:40;12.80;;;9.03;;
17199;SDS011;8716;52.268;20.968;2023-09-30T01:59:09;6.33;;;5.57;;
17199;SDS011;8716;52.268;20.968;2023-09-30T02:01:37;7.03;;;6.63;;
17199;SDS011;8716;52.268;20.968;2023-09-30T02:04:05;8.33;;;7.90;;
17199;SDS011;8716;52.268;20.968;2023-09-30T02:06:34;7.93;;;7.53;;
17199;SDS011;8716;52.268;20.968;2023-09-30T02:09:03;8.23;;;6.60;;
17199;SDS011;8716;52.268;20.968;2023-09-30T02:11:35;6.43;;;6.03;;
17199;SDS011;8716;52.268;20.968;2023-09-30T02:14:07;6.03;;;5.73;;
17199;SDS011;8716;52.268;20.968;2023-09-30T02:16:39;6.63;;;6.23;;
17199;SDS011;8716;52.268;20.968;2023-09-30T02:19:07;11.23;;;8.53;;
17199;SDS011;8716;52.268;20.968;2023-09-30T02:21:37;9.77;;;7.10;;
17199;SDS011;8716;52.268;20.968;2023-09-30T02:24:06;7.83;;;7.43;;
17199;SDS011;8716;52.268;20.968;2023-09-30T02:26:35;7.63;;;6.67;;
17199;SDS011;8716;52.268;20.968;2023-09-30T02:29:05;8.50;;;5.43;;
17199;SDS011;8716;52.268;20.968;2023-09-30T02:31:35;6.30;;;5.37;;
17199;SDS011;8716;52.268;20.968;2023-09-30T02:34:06;9.50;;;5.87;;
17199;SDS011;8716;52.268;20.968;2023-09-30T02:36:34;7.93;;;6.80;;
17199;SDS011;8716;52.268;20.968;2023-09-30T02:39:07;5.50;;;5.20;;
17199;SDS011;8716;52.268;20.968;2023-09-30T02:41:36;6.53;;;6.13;;
17199;SDS011;8716;52.268;20.968;2023-09-30T02:44:04;5.70;;;5.40;;
17199;SDS011;8716;52.268;20.968;2023-09-30T02:46:34;7.17;;;6.77;;
17199;SDS011;8716;52.268;20.968;2023-09-30T02:49:05;6.93;;;6.07;;
17199;SDS011;8716;52.268;20.968;2023-09-30T02:51:34;9.83;;;6.40;;
17199;SDS011;8716;52.268;20.968;2023-09-30T02:54:02;7.23;;;6.30;;
17199;SDS011;8716;52.268;20.968;2023-09-30T02:56:32;4.80;;;4.50;;
17199;SDS011;8716;52.268;20.968;2023-09-30T02:59:01;6.03;;;5.73;;
17199;SDS011;8716;52.268;20.968;2023-09-30T03:01:29;5.87;;;5.57;;
17199;SDS011;8716;52.268;20.968;2023-09-30T03:04:00;9.10;;;8.60;;
17199;SDS011;8716;52.268;20.968;2023-09-30T03:06:28;7.77;;;7.37;;
17199;SDS011;8716;52.268;20.968;2023-09-30T03:08:57;8.83;;;8.33;;
17199;SDS011;8716;52.268;20.968;2023-09-30T03:11:25;6.83;;;6.47;;
17199;SDS011;8716;52.268;20.968;2023-09-30T03:13:54;6.07;;;5.63;;
17199;SDS011;8716;52.268;20.968;2023-09-30T03:16:22;5.80;;;5.33;;
17199;SDS011;8716;52.268;20.968;2023-09-30T03:18:51;5.30;;;5.00;;
17199;SDS011;8716;52.268;20.968;2023-09-30T03:21:26;5.23;;;4.93;;
17199;SDS011;8716;52.268;20.968;2023-09-30T03:23:57;4.77;;;4.47;;
17199;SDS011;8716;52.268;20.968;2023-09-30T03:26:25;5.73;;;5.43;;
17199;SDS011;8716;52.268;20.968;2023-09-30T03:28:56;7.27;;;6.87;;
17199;SDS011;8716;52.268;20.968;2023-09-30T03:31:24;7.30;;;6.90;;
17199;SDS011;8716;52.268;20.968;2023-09-30T03:33:53;6.10;;;5.80;;
17199;SDS011;8716;52.268;20.968;2023-09-30T03:36:22;7.87;;;7.47;;
17199;SDS011;8716;52.268;20.968;2023-09-30T03:38:53;7.57;;;7.17;;
17199;SDS011;8716;52.268;20.968;2023-09-30T03:41:25;6.33;;;5.97;;
17199;SDS011;8716;52.268;20.968;2023-09-30T03:43:55;8.43;;;8.00;;
17199;SDS011;8716;52.268;20.968;2023-09-30T03:46:26;7.53;;;7.13;;
17199;SDS011;8716;52.268;20.968;2023-09-30T03:48:55;7.03;;;6.63;;
17199;SDS011;8716;52.268;20.968;2023-09-30T03:51:24;6.70;;;6.30;;
17199;SDS011;8716;52.268;20.968;2023-09-30T03:53:53;7.93;;;7.53;;
17199;SDS011;8716;52.268;20.968;2023-09-30T03:56:22;6.00;;;5.70;;
17199;SDS011;8716;52.268;20.968;2023-09-30T03:58:52;5.30;;;5.00;;
17199;SDS011;8716;52.268;20.968;2023-09-30T04:01:20;9.23;;;8.73;;
17199;SDS011;8716;52.268;20.968;2023-09-30T04:03:50;6.83;;;6.43;;
17199;SDS011;8716;52.268;20.968;2023-09-30T04:06:21;6.67;;;6.27;;
17199;SDS011;8716;52.268;20.968;2023-09-30T04:08:54;10.80;;;8.97;;
17199;SDS011;8716;52.268;20.968;2023-09-30T04:11:22;6.67;;;6.27;;
17199;SDS011;8716;52.268;20.968;2023-09-30T04:13:50;5.03;;;4.70;;
17199;SDS011;8716;52.268;20.968;2023-09-30T04:16:19;6.67;;;6.27;;
17199;SDS011;8716;52.268;20.968;2023-09-30T04:18:47;5.30;;;5.00;;
17199;SDS011;8716;52.268;20.968;2023-09-30T04:21:16;6.87;;;6.47;;
17199;SDS011;8716;52.268;20.968;2023-09-30T04:23:45;7.00;;;6.60;;
17199;SDS011;8716;52.268;20.968;2023-09-30T04:26:16;8.30;;;7.90;;
17199;SDS011;8716;52.268;20.968;2023-09-30T04:28:45;5.80;;;5.50;;
17199;SDS011;8716;52.268;20.968;2023-09-30T04:31:13;15.97;;;6.40;;
17199;SDS011;8716;52.268;20.968;2023-09-30T04:33:42;8.60;;;8.13;;
17199;SDS011;8716;52.268;20.968;2023-09-30T04:36:10;8.27;;;7.03;;
17199;SDS011;8716;52.268;20.968;2023-09-30T04:38:39;5.60;;;5.30;;
17199;SDS011;8716;52.268;20.968;2023-09-30T04:41:10;5.10;;;4.80;;
17199;SDS011;8716;52.268;20.968;2023-09-30T04:43:43;6.60;;;6.20;;
17199;SDS011;8716;52.268;20.968;2023-09-30T04:46:11;5.43;;;5.13;;
17199;SDS011;8716;52.268;20.968;2023-09-30T04:48:40;9.40;;;6.27;;
17199;SDS011;8716;52.268;20.968;2023-09-30T04:51:09;5.60;;;5.30;;
17199;SDS011;8716;52.268;20.968;2023-09-30T04:53:40;5.83;;;5.53;;
17199;SDS011;8716;52.268;20.968;2023-09-30T04:56:08;4.70;;;4.40;;
17199;SDS011;8716;52.268;20.968;2023-09-30T04:58:36;5.50;;;5.20;;
17199;SDS011;8716;52.268;20.968;2023-09-30T05:01:06;5.93;;;5.63;;
17199;SDS011;8716;52.268;20.968;2023-09-30T05:03:36;6.97;;;6.57;;
17199;SDS011;8716;52.268;20.968;2023-09-30T05:06:06;7.07;;;6.67;;
17199;SDS011;8716;52.268;20.968;2023-09-30T05:08:35;8.00;;;6.93;;
17199;SDS011;8716;52.268;20.968;2023-09-30T05:11:03;5.23;;;4.93;;
17199;SDS011;8716;52.268;20.968;2023-09-30T05:13:31;7.43;;;7.03;;
17199;SDS011;8716;52.268;20.968;2023-09-30T05:16:00;9.10;;;6.83;;
17199;SDS011;8716;52.268;20.968;2023-09-30T05:18:31;5.90;;;5.60;;
17199;SDS011;8716;52.268;20.968;2023-09-30T05:20:59;6.73;;;6.33;;
17199;SDS011;8716;52.268;20.968;2023-09-30T05:23:28;10.93;;;6.53;;
17199;SDS011;8716;52.268;20.968;2023-09-30T05:25:57;8.87;;;8.40;;
17199;SDS011;8716;52.268;20.968;2023-09-30T05:28:25;11.80;;;11.20;;
17199;SDS011;8716;52.268;20.968;2023-09-30T05:30:54;22.10;;;9.27;;
17199;SDS011;8716;52.268;20.968;2023-09-30T05:33:23;6.10;;;5.80;;
17199;SDS011;8716;52.268;20.968;2023-09-30T05:35:53;12.20;;;11.60;;
17199;SDS011;8716;52.268;20.968;2023-09-30T05:38:22;8.03;;;7.63;;
17199;SDS011;8716;52.268;20.968;2023-09-30T05:40:51;8.00;;;5.67;;
17199;SDS011;8716;52.268;20.968;2023-09-30T05:43:21;5.63;;;5.33;;
17199;SDS011;8716;52.268;20.968;2023-09-30T05:45:49;5.30;;;5.00;;
17199;SDS011;8716;52.268;20.968;2023-09-30T05:48:27;10.03;;;9.53;;
17199;SDS011;8716;52.268;20.968;2023-09-30T05:50:57;8.50;;;8.03;;
17199;SDS011;8716;52.268;20.968;2023-09-30T05:53:26;4.80;;;4.50;;
17199;SDS011;8716;52.268;20.968;2023-09-30T05:55:55;5.77;;;4.47;;
17199;SDS011;8716;52.268;20.968;2023-09-30T05:58:23;8.10;;;7.70;;
17199;SDS011;8716;52.268;20.968;2023-09-30T06:01:03;5.50;;;5.20;;
17199;SDS011;8716;52.268;20.968;2023-09-30T06:04:34;16.10;;;9.07;;
17199;SDS011;8716;52.268;20.968;2023-09-30T06:07:50;15.13;;;7.37;;
17199;SDS011;8716;52.268;20.968;2023-09-30T06:10:34;7.47;;;7.07;;
17199;SDS011;8716;52.268;20.968;2023-09-30T06:17:14;8.67;;;6.60;;
17199;SDS011;8716;52.268;20.968;2023-09-30T06:19:46;7.23;;;6.83;;
17199;SDS011;8716;52.268;20.968;2023-09-30T06:22:21;9.67;;;9.17;;
17199;SDS011;8716;52.268;20.968;2023-09-30T06:24:59;7.00;;;6.60;;
17199;SDS011;8716;52.268;20.968;2023-09-30T06:27:33;7.70;;;7.30;;
17199;SDS011;8716;52.268;20.968;2023-09-30T06:30:02;6.00;;;5.70;;
17199;SDS011;8716;52.268;20.968;2023-09-30T06:32:46;7.90;;;7.50;;
17199;SDS011;8716;52.268;20.968;2023-09-30T06:35:15;10.37;;;9.83;;
17199;SDS011;8716;52.268;20.968;2023-09-30T06:37:48;7.00;;;6.60;;
17199;SDS011;8716;52.268;20.968;2023-09-30T06:40:17;6.20;;;5.90;;
17199;SDS011;8716;52.268;20.968;2023-09-30T06:42:46;6.97;;;6.57;;
17199;SDS011;8716;52.268;20.968;2023-09-30T06:45:14;5.90;;;5.60;;
17199;SDS011;8716;52.268;20.968;2023-09-30T06:47:43;7.03;;;6.63;;
17199;SDS011;8716;52.268;20.968;2023-09-30T06:50:12;9.60;;;9.10;;
17199;SDS011;8716;52.268;20.968;2023-09-30T06:52:43;7.30;;;6.90;;
17199;SDS011;8716;52.268;20.968;2023-09-30T06:55:14;9.13;;;8.63;;
17199;SDS011;8716;52.268;20.968;2023-09-30T06:57:44;7.30;;;6.90;;
17199;SDS011;8716;52.268;20.968;2023-09-30T07:00:14;4.97;;;4.67;;
17199;SDS011;8716;52.268;20.968;2023-09-30T07:02:43;5.23;;;4.80;;
17199;SDS011;8716;52.268;20.968;2023-09-30T07:05:13;7.53;;;7.13;;
17199;SDS011;8716;52.268;20.968;2023-09-30T07:07:42;8.27;;;7.83;;
17199;SDS011;8716;52.268;20.968;2023-09-30T07:10:11;6.10;;;5.80;;
17199;SDS011;8716;52.268;20.968;2023-09-30T07:12:41;6.60;;;6.20;;
17199;SDS011;8716;52.268;20.968;2023-09-30T07:15:11;8.90;;;6.07;;
17199;SDS011;8716;52.268;20.968;2023-09-30T07:17:40;7.03;;;6.63;;
17199;SDS011;8716;52.268;20.968;2023-09-30T07:20:11;7.93;;;7.53;;
17199;SDS011;8716;52.268;20.968;2023-09-30T07:22:39;5.97;;;5.67;;
17199;SDS011;8716;52.268;20.968;2023-09-30T07:25:24;6.93;;;6.17;;
17199;SDS011;8716;52.268;20.968;2023-09-30T07:27:53;11.17;;;9.00;;
17199;SDS011;8716;52.268;20.968;2023-09-30T07:30:23;8.67;;;5.93;;
17199;SDS011;8716;52.268;20.968;2023-09-30T07:32:51;12.13;;;6.17;;
17199;SDS011;8716;52.268;20.968;2023-09-30T07:35:23;10.50;;;6.23;;
17199;SDS011;8716;52.268;20.968;2023-09-30T07:37:51;6.77;;;6.37;;
17199;SDS011;8716;52.268;20.968;2023-09-30T07:40:19;9.43;;;8.93;;
17199;SDS011;8716;52.268;20.968;2023-09-30T07:42:48;6.57;;;6.23;;
17199;SDS011;8716;52.268;20.968;2023-09-30T07:45:18;6.20;;;5.90;;
17199;SDS011;8716;52.268;20.968;2023-09-30T07:47:49;13.27;;;8.50;;
17199;SDS011;8716;52.268;20.968;2023-09-30T07:50:17;8.60;;;8.10;;
17199;SDS011;8716;52.268;20.968;2023-09-30T07:52:46;9.03;;;8.50;;
17199;SDS011;8716;52.268;20.968;2023-09-30T07:55:14;10.43;;;8.40;;
17199;SDS011;8716;52.268;20.968;2023-09-30T07:57:43;6.80;;;6.40;;
17199;SDS011;8716;52.268;20.968;2023-09-30T08:00:13;5.37;;;5.07;;
17199;SDS011;8716;52.268;20.968;2023-09-30T08:02:43;8.10;;;6.60;;
17199;SDS011;8716;52.268;20.968;2023-09-30T08:05:13;7.07;;;6.30;;
17199;SDS011;8716;52.268;20.968;2023-09-30T08:07:41;8.00;;;7.60;;
17199;SDS011;8716;52.268;20.968;2023-09-30T08:10:10;8.30;;;7.90;;
17199;SDS011;8716;52.268;20.968;2023-09-30T08:12:40;7.70;;;6.87;;
17199;SDS011;8716;52.268;20.968;2023-09-30T08:15:09;11.10;;;6.97;;
17199;SDS011;8716;52.268;20.968;2023-09-30T08:17:39;5.60;;;5.30;;
17199;SDS011;8716;52.268;20.968;2023-09-30T08:20:08;6.63;;;6.23;;
17199;SDS011;8716;52.268;20.968;2023-09-30T08:22:39;7.07;;;5.43;;
17199;SDS011;8716;52.268;20.968;2023-09-30T08:25:08;8.87;;;8.40;;
17199;SDS011;8716;52.268;20.968;2023-09-30T08:27:37;9.33;;;8.83;;
17199;SDS011;8716;52.268;20.968;2023-09-30T08:30:06;7.03;;;6.63;;
17199;SDS011;8716;52.268;20.968;2023-09-30T08:32:37;8.07;;;7.67;;
17199;SDS011;8716;52.268;20.968;2023-09-30T08:35:06;8.87;;;8.37;;
17199;SDS011;8716;52.268;20.968;2023-09-30T08:37:36;8.03;;;7.63;;
17199;SDS011;8716;52.268;20.968;2023-09-30T08:40:07;8.77;;;8.27;;
17199;SDS011;8716;52.268;20.968;2023-09-30T08:42:38;9.40;;;8.90;;
17199;SDS011;8716;52.268;20.968;2023-09-30T08:45:08;6.93;;;6.53;;
17199;SDS011;8716;52.268;20.968;2023-09-30T08:47:41;11.30;;;9.73;;
17199;SDS011;8716;52.268;20.968;2023-09-30T08:50:10;7.83;;;7.43;;
17199;SDS011;8716;52.268;20.968;2023-09-30T08:52:39;9.17;;;8.67;;
17199;SDS011;8716;52.268;20.968;2023-09-30T08:55:10;17.70;;;15.90;;
17199;SDS011;8716;52.268;20.968;2023-09-30T08:57:40;8.63;;;8.17;;
17199;SDS011;8716;52.268;20.968;2023-09-30T09:00:09;7.87;;;7.47;;
17199;SDS011;8716;52.268;20.968;2023-09-30T09:02:40;11.70;;;11.10;;
17199;SDS011;8716;52.268;20.968;2023-09-30T09:05:09;7.90;;;7.50;;
17199;SDS011;8716;52.268;20.968;2023-09-30T09:07:39;7.73;;;7.33;;
17199;SDS011;8716;52.268;20.968;2023-09-30T09:10:11;10.93;;;10.10;;
17199;SDS011;8716;52.268;20.968;2023-09-30T09:12:43;18.93;;;11.80;;
17199;SDS011;8716;52.268;20.968;2023-09-30T09:15:24;13.50;;;12.80;;
17199;SDS011;8716;52.268;20.968;2023-09-30T09:17:53;9.53;;;9.03;;
17199;SDS011;8716;52.268;20.968;2023-09-30T09:20:22;11.43;;;10.83;;
17199;SDS011;8716;52.268;20.968;2023-09-30T09:22:53;8.73;;;8.27;;
17199;SDS011;8716;52.268;20.968;2023-09-30T09:25:23;15.30;;;14.50;;
17199;SDS011;8716;52.268;20.968;2023-09-30T09:27:53;11.30;;;10.63;;
17199;SDS011;8716;52.268;20.968;2023-09-30T09:30:22;8.03;;;7.60;;
17199;SDS011;8716;52.268;20.968;2023-09-30T09:32:58;9.83;;;9.33;;
17199;SDS011;8716;52.268;20.968;2023-09-30T09:35:28;11.33;;;10.73;;
17199;SDS011;8716;52.268;20.968;2023-09-30T09:37:59;9.43;;;8.93;;
17199;SDS011;8716;52.268;20.968;2023-09-30T09:40:30;15.43;;;10.97;;
17199;SDS011;8716;52.268;20.968;2023-09-30T09:43:00;12.07;;;11.47;;
17199;SDS011;8716;52.268;20.968;2023-09-30T09:45:32;9.10;;;7.83;;
17199;SDS011;8716;52.268;20.968;2023-09-30T09:48:02;12.37;;;7.17;;
17199;SDS011;8716;52.268;20.968;2023-09-30T09:50:35;9.13;;;8.63;;
17199;SDS011;8716;52.268;20.968;2023-09-30T09:53:05;13.10;;;12.40;;
17199;SDS011;8716;52.268;20.968;2023-09-30T09:55:36;25.07;;;9.73;;
17199;SDS011;8716;52.268;20.968;2023-09-30T09:58:08;9.53;;;8.97;;
17199;SDS011;8716;52.268;20.968;2023-09-30T10:00:37;6.67;;;6.27;;
17199;SDS011;8716;52.268;20.968;2023-09-30T10:03:06;9.37;;;8.47;;
17199;SDS011;8716;52.268;20.968;2023-09-30T10:05:35;12.10;;;11.50;;
17199;SDS011;8716;52.268;20.968;2023-09-30T10:08:07;12.07;;;11.47;;
17199;SDS011;8716;52.268;20.968;2023-09-30T10:10:42;13.53;;;10.70;;
17199;SDS011;8716;52.268;20.968;2023-09-30T10:19:16;8.23;;;7.80;;
17199;SDS011;8716;52.268;20.968;2023-09-30T10:24:49;9.20;;;8.70;;
17199;SDS011;8716;52.268;20.968;2023-09-30T10:27:30;8.67;;;8.17;;
17199;SDS011;8716;52.268;20.968;2023-09-30T10:30:10;7.87;;;7.47;;
17199;SDS011;8716;52.268;20.968;2023-09-30T10:35:43;5.73;;;5.30;;
17199;SDS011;8716;52.268;20.968;2023-09-30T10:41:04;4.10;;;3.90;;
17199;SDS011;8716;52.268;20.968;2023-09-30T10:43:37;4.53;;;4.23;;
17199;SDS011;8716;52.268;20.968;2023-09-30T10:49:16;5.07;;;4.70;;
17199;SDS011;8716;52.268;20.968;2023-09-30T10:51:59;3.80;;;3.60;;
17199;SDS011;8716;52.268;20.968;2023-09-30T10:54:28;4.17;;;3.93;;
17199;SDS011;8716;52.268;20.968;2023-09-30T10:56:59;5.20;;;3.80;;
17199;SDS011;8716;52.268;20.968;2023-09-30T10:59:31;3.70;;;3.00;;
17199;SDS011;8716;52.268;20.968;2023-09-30T11:02:02;3.67;;;3.47;;
17199;SDS011;8716;52.268;20.968;2023-09-30T11:04:44;4.23;;;3.97;;
17199;SDS011;8716;52.268;20.968;2023-09-30T11:07:17;5.20;;;3.50;;
17199;SDS011;8716;52.268;20.968;2023-09-30T11:09:50;3.33;;;3.13;;
17199;SDS011;8716;52.268;20.968;2023-09-30T11:12:19;3.60;;;3.40;;
17199;SDS011;8716;52.268;20.968;2023-09-30T11:14:58;5.53;;;5.23;;
17199;SDS011;8716;52.268;20.968;2023-09-30T11:17:28;3.53;;;3.33;;
17199;SDS011;8716;52.268;20.968;2023-09-30T11:19:56;4.00;;;3.80;;
17199;SDS011;8716;52.268;20.968;2023-09-30T11:22:24;4.10;;;3.47;;
17199;SDS011;8716;52.268;20.968;2023-09-30T11:24:53;3.63;;;3.43;;
17199;SDS011;8716;52.268;20.968;2023-09-30T11:27:23;4.70;;;4.40;;
17199;SDS011;8716;52.268;20.968;2023-09-30T11:29:54;4.30;;;4.03;;
17199;SDS011;8716;52.268;20.968;2023-09-30T11:32:24;3.37;;;3.10;;
17199;SDS011;8716;52.268;20.968;2023-09-30T11:34:54;4.93;;;3.77;;
17199;SDS011;8716;52.268;20.968;2023-09-30T11:37:23;4.57;;;4.20;;
17199;SDS011;8716;52.268;20.968;2023-09-30T11:39:51;3.50;;;3.30;;
17199;SDS011;8716;52.268;20.968;2023-09-30T11:42:20;3.33;;;3.13;;
17199;SDS011;8716;52.268;20.968;2023-09-30T11:44:48;3.67;;;3.47;;
17199;SDS011;8716;52.268;20.968;2023-09-30T11:47:29;3.87;;;3.67;;
17199;SDS011;8716;52.268;20.968;2023-09-30T11:49:59;3.70;;;3.50;;
17199;SDS011;8716;52.268;20.968;2023-09-30T11:52:28;4.70;;;4.40;;
17199;SDS011;8716;52.268;20.968;2023-09-30T11:54:57;3.23;;;3.03;;
17199;SDS011;8716;52.268;20.968;2023-09-30T11:57:30;7.00;;;6.60;;
17199;SDS011;8716;52.268;20.968;2023-09-30T11:59:58;4.13;;;3.90;;
17199;SDS011;8716;52.268;20.968;2023-09-30T12:02:27;5.53;;;4.03;;
17199;SDS011;8716;52.268;20.968;2023-09-30T12:04:56;4.30;;;4.03;;
17199;SDS011;8716;52.268;20.968;2023-09-30T12:07:25;3.40;;;3.20;;
17199;SDS011;8716;52.268;20.968;2023-09-30T12:09:53;5.73;;;3.37;;
17199;SDS011;8716;52.268;20.968;2023-09-30T12:12:22;4.00;;;3.80;;
17199;SDS011;8716;52.268;20.968;2023-09-30T12:14:50;5.43;;;3.70;;
17199;SDS011;8716;52.268;20.968;2023-09-30T12:17:19;4.00;;;3.80;;
17199;SDS011;8716;52.268;20.968;2023-09-30T12:19:50;4.00;;;3.80;;
17199;SDS011;8716;52.268;20.968;2023-09-30T12:22:18;4.40;;;4.10;;
17199;SDS011;8716;52.268;20.968;2023-09-30T12:24:47;3.40;;;3.20;;
17199;SDS011;8716;52.268;20.968;2023-09-30T12:27:15;2.87;;;2.67;;
17199;SDS011;8716;52.268;20.968;2023-09-30T12:29:44;3.50;;;3.30;;
17199;SDS011;8716;52.268;20.968;2023-09-30T12:32:14;3.50;;;3.40;;
17199;SDS011;8716;52.268;20.968;2023-09-30T12:34:43;4.00;;;3.80;;
17199;SDS011;8716;52.268;20.968;2023-09-30T12:37:13;6.00;;;5.00;;
17199;SDS011;8716;52.268;20.968;2023-09-30T12:39:41;6.53;;;6.13;;
17199;SDS011;8716;52.268;20.968;2023-09-30T12:42:11;5.00;;;4.70;;
17199;SDS011;8716;52.268;20.968;2023-09-30T12:44:41;6.07;;;5.73;;
17199;SDS011;8716;52.268;20.968;2023-09-30T12:47:09;4.73;;;4.43;;
17199;SDS011;8716;52.268;20.968;2023-09-30T12:49:38;3.53;;;3.33;;
17199;SDS011;8716;52.268;20.968;2023-09-30T12:52:06;4.00;;;3.80;;
17199;SDS011;8716;52.268;20.968;2023-09-30T12:54:36;6.73;;;5.53;;
17199;SDS011;8716;52.268;20.968;2023-09-30T12:57:04;6.13;;;4.97;;
17199;SDS011;8716;52.268;20.968;2023-09-30T12:59:34;4.70;;;4.40;;
17199;SDS011;8716;52.268;20.968;2023-09-30T13:02:02;8.03;;;6.67;;
17199;SDS011;8716;52.268;20.968;2023-09-30T13:04:31;5.47;;;5.17;;
17199;SDS011;8716;52.268;20.968;2023-09-30T13:07:00;4.73;;;3.43;;
17199;SDS011;8716;52.268;20.968;2023-09-30T13:09:31;4.50;;;4.20;;
17199;SDS011;8716;52.268;20.968;2023-09-30T13:12:02;4.50;;;4.20;;
17199;SDS011;8716;52.268;20.968;2023-09-30T13:14:30;3.90;;;3.70;;
17199;SDS011;8716;52.268;20.968;2023-09-30T13:16:59;4.70;;;4.40;;
17199;SDS011;8716;52.268;20.968;2023-09-30T13:19:27;3.87;;;3.67;;
17199;SDS011;8716;52.268;20.968;2023-09-30T13:21:56;4.60;;;4.30;;
17199;SDS011;8716;52.268;20.968;2023-09-30T13:24:24;3.90;;;3.70;;
17199;SDS011;8716;52.268;20.968;2023-09-30T13:26:53;5.10;;;4.80;;
17199;SDS011;8716;52.268;20.968;2023-09-30T13:29:23;5.37;;;5.07;;
17199;SDS011;8716;52.268;20.968;2023-09-30T13:31:51;6.43;;;4.80;;
17199;SDS011;8716;52.268;20.968;2023-09-30T13:34:19;4.93;;;4.63;;
17199;SDS011;8716;52.268;20.968;2023-09-30T13:36:48;3.50;;;2.80;;
17199;SDS011;8716;52.268;20.968;2023-09-30T13:39:16;3.97;;;3.77;;
17199;SDS011;8716;52.268;20.968;2023-09-30T13:41:45;6.40;;;3.70;;
17199;SDS011;8716;52.268;20.968;2023-09-30T13:44:14;3.53;;;3.33;;
17199;SDS011;8716;52.268;20.968;2023-09-30T13:46:43;5.27;;;4.97;;
17199;SDS011;8716;52.268;20.968;2023-09-30T13:49:12;5.13;;;4.03;;
17199;SDS011;8716;52.268;20.968;2023-09-30T13:51:40;4.43;;;4.13;;
17199;SDS011;8716;52.268;20.968;2023-09-30T13:54:09;4.40;;;4.10;;
17199;SDS011;8716;52.268;20.968;2023-09-30T13:56:37;6.60;;;3.43;;
17199;SDS011;8716;52.268;20.968;2023-09-30T13:59:05;4.77;;;4.47;;
17199;SDS011;8716;52.268;20.968;2023-09-30T14:01:39;4.17;;;3.93;;
17199;SDS011;8716;52.268;20.968;2023-09-30T14:04:09;6.33;;;5.30;;
17199;SDS011;8716;52.268;20.968;2023-09-30T14:06:38;3.73;;;3.53;;
17199;SDS011;8716;52.268;20.968;2023-09-30T14:09:07;4.03;;;3.80;;
17199;SDS011;8716;52.268;20.968;2023-09-30T14:12:00;4.00;;;3.80;;
17199;SDS011;8716;52.268;20.968;2023-09-30T14:14:31;3.77;;;3.57;;
17199;SDS011;8716;52.268;20.968;2023-09-30T14:17:00;3.63;;;3.43;;
17199;SDS011;8716;52.268;20.968;2023-09-30T14:19:36;5.27;;;4.97;;
17199;SDS011;8716;52.268;20.968;2023-09-30T14:22:05;3.60;;;3.40;;
17199;SDS011;8716;52.268;20.968;2023-09-30T14:24:35;3.23;;;3.03;;
17199;SDS011;8716;52.268;20.968;2023-09-30T14:27:03;3.10;;;2.90;;
17199;SDS011;8716;52.268;20.968;2023-09-30T14:29:32;4.83;;;3.50;;
17199;SDS011;8716;52.268;20.968;2023-09-30T14:32:00;3.70;;;3.50;;
17199;SDS011;8716;52.268;20.968;2023-09-30T14:34:29;4.53;;;4.23;;
17199;SDS011;8716;52.268;20.968;2023-09-30T14:36:59;3.97;;;3.77;;
17199;SDS011;8716;52.268;20.968;2023-09-30T14:39:27;3.70;;;3.50;;
17199;SDS011;8716;52.268;20.968;2023-09-30T14:41:56;3.63;;;3.43;;
17199;SDS011;8716;52.268;20.968;2023-09-30T14:44:24;7.20;;;6.40;;
17199;SDS011;8716;52.268;20.968;2023-09-30T14:46:52;4.70;;;4.40;;
17199;SDS011;8716;52.268;20.968;2023-09-30T14:49:22;5.20;;;4.90;;
17199;SDS011;8716;52.268;20.968;2023-09-30T14:51:51;5.53;;;5.23;;
17199;SDS011;8716;52.268;20.968;2023-09-30T14:54:20;4.00;;;3.80;;
17199;SDS011;8716;52.268;20.968;2023-09-30T14:56:49;6.40;;;6.03;;
17199;SDS011;8716;52.268;20.968;2023-09-30T14:59:17;2.70;;;2.50;;
17199;SDS011;8716;52.268;20.968;2023-09-30T15:01:46;4.60;;;4.30;;
17199;SDS011;8716;52.268;20.968;2023-09-30T15:04:15;3.97;;;3.77;;
17199;SDS011;8716;52.268;20.968;2023-09-30T15:06:44;3.10;;;2.90;;
17199;SDS011;8716;52.268;20.968;2023-09-30T15:09:12;3.57;;;3.37;;
17199;SDS011;8716;52.268;20.968;2023-09-30T15:11:42;4.13;;;3.90;;
17199;SDS011;8716;52.268;20.968;2023-09-30T15:14:11;4.60;;;4.30;;
17199;SDS011;8716;52.268;20.968;2023-09-30T15:16:39;3.97;;;3.77;;
17199;SDS011;8716;52.268;20.968;2023-09-30T15:19:08;5.33;;;5.03;;
17199;SDS011;8716;52.268;20.968;2023-09-30T15:21:36;3.30;;;3.10;;
17199;SDS011;8716;52.268;20.968;2023-09-30T15:24:05;3.63;;;3.43;;
17199;SDS011;8716;52.268;20.968;2023-09-30T15:26:35;3.37;;;3.03;;